createdAt,value
2022-08-25T00:01:34.233Z,68.16
2022-08-25T00:07:05.925Z,68.97
2022-08-25T00:12:37.872Z,68.94
2022-08-25T00:20:31.142Z,0.00
2022-08-25T00:26:02.647Z,69.87
2022-08-25T00:31:37.688Z,70.08
2022-08-25T00:37:06.462Z,70.36
2022-08-25T00:42:38.311Z,70.23
2022-08-25T00:48:10.283Z,70.59
2022-08-25T00:53:41.837Z,70.66
2022-08-25T00:59:13.784Z,70.37
2022-08-25T01:04:48.714Z,70.75
2022-08-25T01:10:17.429Z,71.11
2022-08-25T01:15:48.934Z,71.35
2022-08-25T01:21:20.406Z,71.40
2022-08-25T01:26:52.252Z,71.64
2022-08-25T01:32:24.041Z,71.67
2022-08-25T01:37:55.698Z,72.07
2022-08-25T01:43:27.126Z,72.32
2022-08-25T01:49:00.417Z,72.44
2022-08-25T01:54:30.859Z,71.60
2022-08-25T02:00:02.503Z,71.33
2022-08-25T02:05:34.524Z,70.79
2022-08-25T02:11:06.356Z,70.69
2022-08-25T02:16:38.224Z,70.68
2022-08-25T02:22:10.078Z,71.01
2022-08-25T02:27:41.792Z,71.66
2022-08-25T02:33:13.544Z,71.92
2022-08-25T02:38:45.395Z,72.28
2022-08-25T02:44:16.935Z,72.35
2022-08-25T02:49:48.311Z,72.64
2022-08-25T02:55:19.709Z,73.07
2022-08-25T03:00:51.756Z,73.49
2022-08-25T03:06:23.679Z,73.36
2022-08-25T03:11:54.801Z,74.51
2022-08-25T03:17:26.576Z,74.45
2022-08-25T03:22:58.530Z,74.37
2022-08-25T03:28:30.304Z,74.57
2022-08-25T03:34:02.068Z,74.53
2022-08-25T03:39:34.061Z,75.08
2022-08-25T03:45:05.795Z,75.26
2022-08-25T03:50:37.124Z,75.69
2022-08-25T03:56:08.726Z,75.50
2022-08-25T04:01:40.638Z,75.72
2022-08-25T04:12:43.990Z,76.87
2022-08-25T04:18:15.642Z,76.93
2022-08-25T04:23:47.226Z,77.02
2022-08-25T04:29:20.093Z,76.86
2022-08-25T04:34:51.856Z,77.09
2022-08-25T04:40:23.855Z,76.81
2022-08-25T04:45:55.193Z,76.63
2022-08-25T04:51:27.181Z,76.60
2022-08-25T04:56:59.047Z,76.25
2022-08-25T05:02:30.728Z,76.29
2022-08-25T05:08:02.693Z,76.19
2022-08-25T05:13:34.178Z,76.06
2022-08-25T05:19:06.055Z,75.81
2022-08-25T05:24:37.866Z,75.14
2022-08-25T05:30:09.603Z,72.47
2022-08-25T05:35:41.128Z,69.87
2022-08-25T05:41:12.709Z,66.42
2022-08-25T05:46:44.496Z,64.04
2022-08-25T05:52:18.215Z,61.71
2022-08-25T05:57:48.226Z,59.67
2022-08-25T06:03:19.906Z,57.81
2022-08-25T06:08:51.895Z,55.74
2022-08-25T06:14:23.785Z,52.90
2022-08-25T06:19:55.452Z,52.68
2022-08-25T06:25:27.356Z,52.10
2022-08-25T06:30:58.944Z,51.54
2022-08-25T06:36:30.907Z,50.16
2022-08-25T06:42:02.766Z,48.72
2022-08-25T06:47:34.657Z,47.87
2022-08-25T06:53:06.270Z,47.52
2022-08-25T06:58:37.766Z,46.86
2022-08-25T07:04:13.070Z,46.56
2022-08-25T07:09:41.387Z,45.55
2022-08-25T07:15:20.905Z,44.64
2022-08-25T07:20:44.722Z,45.08
2022-08-25T07:26:36.225Z,45.26
2022-08-25T07:31:48.607Z,43.95
2022-08-25T07:37:45.506Z,44.04
2022-08-25T07:42:52.133Z,42.56
2022-08-25T07:48:23.965Z,42.38
2022-08-25T07:53:55.676Z,43.47
2022-08-25T07:59:27.507Z,43.32
2022-08-25T08:04:59.443Z,42.45
2022-08-25T08:11:00.615Z,42.55
2022-08-25T08:16:03.129Z,42.52
2022-08-25T08:21:34.617Z,43.10
2022-08-25T08:27:06.335Z,42.40
2022-08-25T08:33:06.399Z,43.25
2022-08-25T08:38:16.159Z,43.91
2022-08-25T08:43:41.933Z,43.80
2022-08-25T08:49:13.971Z,43.52
2022-08-25T08:54:46.217Z,43.61
2022-08-25T09:00:18.001Z,43.13
2022-08-25T09:11:21.464Z,43.48
2022-08-25T09:16:53.389Z,43.61
2022-08-25T09:22:35.519Z,43.71
2022-08-25T09:27:57.071Z,43.50
2022-08-25T09:33:28.830Z,44.41
2022-08-25T09:39:00.473Z,45.23
2022-08-25T09:44:32.210Z,46.39
2022-08-25T09:50:04.628Z,47.09
2022-08-25T09:55:35.826Z,47.97
2022-08-25T10:01:07.561Z,48.64
2022-08-25T10:06:39.586Z,49.27
2022-08-25T10:12:11.430Z,49.33
2022-08-25T10:17:42.889Z,50.17
2022-08-25T10:23:14.875Z,49.93
2022-08-25T10:28:46.656Z,49.46
2022-08-25T10:34:18.549Z,50.27
2022-08-25T10:39:55.363Z,48.86
2022-08-25T10:45:22.174Z,48.84
2022-08-25T11:01:57.228Z,50.14
2022-08-25T11:07:31.530Z,49.59
2022-08-25T11:24:06.718Z,50.17
2022-08-25T11:29:39.450Z,50.21
2022-08-25T11:35:10.166Z,48.84
2022-08-25T11:40:41.721Z,49.00
2022-08-25T11:46:14.000Z,49.06
2022-08-25T11:51:45.454Z,48.57
2022-08-25T11:57:17.703Z,48.07
2022-08-25T12:13:53.544Z,47.14
2022-08-25T12:19:25.418Z,46.37
2022-08-25T12:24:57.207Z,45.86
2022-08-25T12:30:28.737Z,46.17
2022-08-25T12:36:00.475Z,45.44
2022-08-25T12:41:33.671Z,44.47
2022-08-25T12:47:05.981Z,44.03
2022-08-25T12:52:37.754Z,44.34
2022-08-25T12:58:10.720Z,44.05
2022-08-25T13:00:33.629Z,44.21
2022-08-25T13:06:05.406Z,44.67
2022-08-25T13:11:37.352Z,44.31
2022-08-25T13:17:09.683Z,44.44
2022-08-25T13:22:40.660Z,43.73
2022-08-25T13:28:12.464Z,44.13
2022-08-25T13:33:44.353Z,45.32
2022-08-25T13:39:17.041Z,45.53
2022-08-25T13:50:20.725Z,46.24
2022-08-25T13:55:53.381Z,45.51
2022-08-25T14:01:48.994Z,45.45
2022-08-25T14:06:56.894Z,45.15
2022-08-25T14:18:00.795Z,44.49
2022-08-25T14:23:32.917Z,44.38
2022-08-25T14:29:04.475Z,43.55
2022-08-25T14:34:36.494Z,42.74
2022-08-25T14:40:08.254Z,42.33
2022-08-25T14:45:40.090Z,42.57
2022-08-25T14:51:11.384Z,43.56
2022-08-25T14:56:43.098Z,42.88
2022-08-25T15:02:14.763Z,42.94
2022-08-25T15:07:46.519Z,43.04
2022-08-25T15:18:49.274Z,44.44
2022-08-25T15:24:21.128Z,45.05
2022-08-25T15:29:52.998Z,45.15
2022-08-25T15:35:27.729Z,45.47
2022-08-25T15:40:56.453Z,45.15
2022-08-25T15:46:28.395Z,44.74
2022-08-25T15:51:59.752Z,44.56
2022-08-25T15:57:31.587Z,44.93
2022-08-25T16:08:35.453Z,44.72
2022-08-25T16:14:07.063Z,44.57
2022-08-25T16:19:39.319Z,43.50
2022-08-25T16:25:10.731Z,43.50
2022-08-25T16:30:42.497Z,43.32
2022-08-25T16:36:14.237Z,43.17
2022-08-25T16:41:46.007Z,43.28
2022-08-25T16:47:20.328Z,43.31
2022-08-25T16:52:48.972Z,43.65
2022-08-25T16:58:20.343Z,45.04
2022-08-25T17:03:52.327Z,46.44
2022-08-25T17:14:55.776Z,47.76
2022-08-25T17:20:27.957Z,48.10
2022-08-25T17:25:59.282Z,48.80
2022-08-25T17:31:30.831Z,49.35
2022-08-25T17:37:02.226Z,49.78
2022-08-25T17:42:36.369Z,50.33
2022-08-25T17:48:08.363Z,50.74
2022-08-25T17:53:39.803Z,51.18
2022-08-25T17:59:11.098Z,51.77
2022-08-25T18:04:43.073Z,52.03
2022-08-25T18:10:15.018Z,52.63
2022-08-25T18:15:46.892Z,52.99
2022-08-25T18:26:50.179Z,53.13
2022-08-25T18:32:22.125Z,53.18
2022-08-25T18:37:53.659Z,53.30
2022-08-25T18:43:25.452Z,54.07
2022-08-25T18:48:57.244Z,54.07
2022-08-25T18:54:28.951Z,54.38
2022-08-25T19:00:00.757Z,54.93
2022-08-25T19:05:32.014Z,55.69
2022-08-25T19:11:03.331Z,55.84
2022-08-25T19:16:35.183Z,57.22
2022-08-25T19:22:13.424Z,57.83
2022-08-25T19:27:38.464Z,58.26
2022-08-25T19:33:11.703Z,58.38
2022-08-25T19:38:41.968Z,59.03
2022-08-25T19:44:13.663Z,59.25
2022-08-25T19:49:45.562Z,59.70
2022-08-25T19:55:17.650Z,59.98
2022-08-25T20:00:51.282Z,60.00
2022-08-25T20:06:21.350Z,60.19
2022-08-25T20:11:55.023Z,60.29
2022-08-25T20:17:28.646Z,60.08
2022-08-25T20:22:58.889Z,60.21
2022-08-25T20:28:30.637Z,60.62
2022-08-25T20:34:03.074Z,60.72
2022-08-25T20:45:08.293Z,61.74
2022-08-25T20:50:40.166Z,61.59
2022-08-25T20:56:11.684Z,62.50
2022-08-25T21:01:43.563Z,62.37
2022-08-25T21:12:47.323Z,62.37
2022-08-25T21:23:50.878Z,62.50
2022-08-25T21:29:22.578Z,63.06
2022-08-25T21:34:54.359Z,62.84
2022-08-25T21:40:26.258Z,62.39
2022-08-25T21:45:57.675Z,62.62
2022-08-25T21:51:28.998Z,62.53
2022-08-25T22:10:24.992Z,62.55
2022-08-25T22:15:56.460Z,62.48
2022-08-25T22:21:27.683Z,62.33
2022-08-25T22:26:59.508Z,62.55
2022-08-25T22:32:30.980Z,63.52
2022-08-25T22:38:02.738Z,63.56
2022-08-25T22:43:34.875Z,64.34
2022-08-25T22:49:06.369Z,64.27
2022-08-25T22:54:38.455Z,64.26
2022-08-25T23:00:10.142Z,64.59
2022-08-25T23:05:42.118Z,65.88
2022-08-25T23:11:13.839Z,66.00
2022-08-25T23:16:45.754Z,66.80
2022-08-25T23:22:17.158Z,67.06
2022-08-25T23:27:48.805Z,66.91
2022-08-25T23:33:20.348Z,67.25
2022-08-25T23:38:52.370Z,67.50
2022-08-25T23:44:24.474Z,67.46
2022-08-25T23:49:55.955Z,68.02
2022-08-25T23:55:33.038Z,67.98
